Hauptseite
METAR-TAF:

METAR-TAF

Flughäfen :

Flughafen Garoua

Garoua, Kamerun

Breite: 09-20N, Länge: 013-23E, Höhe: 242 m

Beobachtung

Neuester Wetterbericht von vor 22 Stunden und 35 Minuten, um 08:00 UTC
Wind 3 kt aus West, variierte zwischen West/Südwest und Nord/Nordwest
Temperatur 26°C
Luftfeuchtigkeit 84%
Luftdruck 1012 hPa
Sichtweite 10 km oder mehr
Leicht bewölkt in der Höhe von 1300 ft

METAR: FKKR 240800Z 28003KT 240V330 9999 FEW013 26/23 Q1012 NOSIG

Zeit: 07:35 (06:35 UTC)

Prognose

Neuester Wetterbericht von vor 25 Stunden und 35 Minuten, um 05:00 UTC
Gültige Prognose vom 24 um 06 UTC bis 24 um 18 UTC
Wind 9 kt aus West
Sichtweite 10 km oder mehr
Leicht bewölkt in der Höhe von 1600 ft

TAF: FKKR 240500Z 2406/2418 28009KT 9999 FEW016

Wetterbeobachtungen und Prognosen von mehr als 4000 Flughäfen (METAR und TAF Bericht).

Die verfügbaren Stationen werden durch gelbe und rote Markierungen auf der Karte dargestellt.

Führen Sie die Maus auf sie, um den Namen der Station zu sehen.

Darauf klicken, um die Beobachtung von Wetterbeobachtungen und Prognosen zu sehen.

Um die Karte zu ändern : klicken Sie auf den grünen Tasten mit einem schwarzen Kreuz Zum Vergrößern, auf den grünen Button mit einem Gedankenstrich zu verkleinern, oder auf die grünen Pfeile für benachbarte Karten.


METAR-TAF: